sensor_id;sensor_type;location;lat;lon;timestamp;P1;durP1;ratioP1;P2;durP2;ratioP2
70052;SDS011;57398;52.032;4.376;2023-04-15T00:02:33;8.48;;;5.10;;
70052;SDS011;57398;52.032;4.376;2023-04-15T00:05:23;11.00;;;5.23;;
70052;SDS011;57398;52.032;4.376;2023-04-15T00:08:11;12.35;;;4.72;;
70052;SDS011;57398;52.032;4.376;2023-04-15T00:11:00;8.68;;;4.72;;
70052;SDS011;57398;52.032;4.376;2023-04-15T00:13:51;10.35;;;4.72;;
70052;SDS011;57398;52.032;4.376;2023-04-15T00:16:40;9.80;;;4.93;;
70052;SDS011;57398;52.032;4.376;2023-04-15T00:19:28;9.67;;;5.23;;
70052;SDS011;57398;52.032;4.376;2023-04-15T00:22:16;9.63;;;4.97;;
70052;SDS011;57398;52.032;4.376;2023-04-15T00:25:04;9.60;;;5.05;;
70052;SDS011;57398;52.032;4.376;2023-04-15T00:27:54;10.98;;;5.13;;
70052;SDS011;57398;52.032;4.376;2023-04-15T00:30:42;9.65;;;5.07;;
70052;SDS011;57398;52.032;4.376;2023-04-15T00:33:30;9.27;;;4.97;;
70052;SDS011;57398;52.032;4.376;2023-04-15T00:36:19;9.10;;;5.32;;
70052;SDS011;57398;52.032;4.376;2023-04-15T00:39:07;9.80;;;5.20;;
70052;SDS011;57398;52.032;4.376;2023-04-15T00:41:55;10.15;;;5.68;;
70052;SDS011;57398;52.032;4.376;2023-04-15T00:44:46;8.73;;;5.15;;
70052;SDS011;57398;52.032;4.376;2023-04-15T00:47:34;10.97;;;5.23;;
70052;SDS011;57398;52.032;4.376;2023-04-15T00:50:24;8.25;;;4.90;;
70052;SDS011;57398;52.032;4.376;2023-04-15T00:53:12;12.52;;;5.43;;
70052;SDS011;57398;52.032;4.376;2023-04-15T00:56:00;12.32;;;5.20;;
70052;SDS011;57398;52.032;4.376;2023-04-15T00:58:48;8.82;;;5.03;;
70052;SDS011;57398;52.032;4.376;2023-04-15T01:01:39;9.63;;;5.20;;
70052;SDS011;57398;52.032;4.376;2023-04-15T01:04:28;10.70;;;5.72;;
70052;SDS011;57398;52.032;4.376;2023-04-15T01:07:17;11.32;;;5.55;;
70052;SDS011;57398;52.032;4.376;2023-04-15T01:10:06;13.20;;;5.93;;
70052;SDS011;57398;52.032;4.376;2023-04-15T01:12:55;14.40;;;6.50;;
70052;SDS011;57398;52.032;4.376;2023-04-15T01:15:43;13.10;;;5.47;;
70052;SDS011;57398;52.032;4.376;2023-04-15T01:18:33;10.77;;;5.82;;
70052;SDS011;57398;52.032;4.376;2023-04-15T01:21:23;11.75;;;5.90;;
70052;SDS011;57398;52.032;4.376;2023-04-15T01:24:12;11.70;;;5.65;;
70052;SDS011;57398;52.032;4.376;2023-04-15T01:27:05;10.23;;;5.47;;
70052;SDS011;57398;52.032;4.376;2023-04-15T01:29:54;11.17;;;6.37;;
70052;SDS011;57398;52.032;4.376;2023-04-15T01:32:43;11.32;;;5.05;;
70052;SDS011;57398;52.032;4.376;2023-04-15T01:35:31;11.30;;;5.60;;
70052;SDS011;57398;52.032;4.376;2023-04-15T01:38:20;14.95;;;5.82;;
70052;SDS011;57398;52.032;4.376;2023-04-15T01:41:08;11.23;;;6.00;;
70052;SDS011;57398;52.032;4.376;2023-04-15T01:43:58;14.70;;;6.50;;
70052;SDS011;57398;52.032;4.376;2023-04-15T01:46:47;12.73;;;5.88;;
70052;SDS011;57398;52.032;4.376;2023-04-15T01:49:35;11.10;;;5.55;;
70052;SDS011;57398;52.032;4.376;2023-04-15T01:52:24;12.07;;;6.00;;
70052;SDS011;57398;52.032;4.376;2023-04-15T01:55:12;12.80;;;6.07;;
70052;SDS011;57398;52.032;4.376;2023-04-15T01:58:00;11.83;;;5.87;;
70052;SDS011;57398;52.032;4.376;2023-04-15T02:00:50;10.88;;;5.45;;
70052;SDS011;57398;52.032;4.376;2023-04-15T02:03:38;11.27;;;6.20;;
70052;SDS011;57398;52.032;4.376;2023-04-15T02:06:26;11.07;;;5.75;;
70052;SDS011;57398;52.032;4.376;2023-04-15T02:09:15;11.55;;;5.85;;
70052;SDS011;57398;52.032;4.376;2023-04-15T02:12:03;12.33;;;5.97;;
70052;SDS011;57398;52.032;4.376;2023-04-15T02:14:51;11.70;;;5.90;;
70052;SDS011;57398;52.032;4.376;2023-04-15T02:17:41;10.70;;;5.82;;
70052;SDS011;57398;52.032;4.376;2023-04-15T02:20:31;11.25;;;5.50;;
70052;SDS011;57398;52.032;4.376;2023-04-15T02:23:20;11.32;;;6.00;;
70052;SDS011;57398;52.032;4.376;2023-04-15T02:26:08;10.43;;;6.03;;
70052;SDS011;57398;52.032;4.376;2023-04-15T02:28:57;11.25;;;5.95;;
70052;SDS011;57398;52.032;4.376;2023-04-15T02:31:46;12.95;;;5.95;;
70052;SDS011;57398;52.032;4.376;2023-04-15T02:34:36;11.77;;;5.53;;
70052;SDS011;57398;52.032;4.376;2023-04-15T02:37:26;11.98;;;6.00;;
70052;SDS011;57398;52.032;4.376;2023-04-15T02:40:17;12.80;;;5.43;;
70052;SDS011;57398;52.032;4.376;2023-04-15T02:43:05;9.30;;;5.65;;
70052;SDS011;57398;52.032;4.376;2023-04-15T02:45:53;10.98;;;6.13;;
70052;SDS011;57398;52.032;4.376;2023-04-15T02:48:42;12.00;;;6.18;;
70052;SDS011;57398;52.032;4.376;2023-04-15T02:51:32;14.05;;;6.80;;
70052;SDS011;57398;52.032;4.376;2023-04-15T02:54:21;13.13;;;7.20;;
70052;SDS011;57398;52.032;4.376;2023-04-15T02:57:09;12.70;;;7.03;;
70052;SDS011;57398;52.032;4.376;2023-04-15T02:59:58;15.00;;;7.13;;
70052;SDS011;57398;52.032;4.376;2023-04-15T03:02:46;12.80;;;6.78;;
70052;SDS011;57398;52.032;4.376;2023-04-15T03:05:38;14.23;;;6.82;;
70052;SDS011;57398;52.032;4.376;2023-04-15T03:08:28;13.90;;;6.83;;
70052;SDS011;57398;52.032;4.376;2023-04-15T03:11:16;12.20;;;6.90;;
70052;SDS011;57398;52.032;4.376;2023-04-15T03:14:04;12.30;;;6.85;;
70052;SDS011;57398;52.032;4.376;2023-04-15T03:16:53;15.10;;;6.95;;
70052;SDS011;57398;52.032;4.376;2023-04-15T03:19:42;14.02;;;6.82;;
70052;SDS011;57398;52.032;4.376;2023-04-15T03:22:30;11.47;;;6.70;;
70052;SDS011;57398;52.032;4.376;2023-04-15T03:25:20;13.63;;;6.75;;
70052;SDS011;57398;52.032;4.376;2023-04-15T03:28:08;12.57;;;6.10;;
70052;SDS011;57398;52.032;4.376;2023-04-15T03:30:56;13.60;;;6.35;;
70052;SDS011;57398;52.032;4.376;2023-04-15T03:33:44;12.65;;;6.95;;
70052;SDS011;57398;52.032;4.376;2023-04-15T03:36:33;13.07;;;6.40;;
70052;SDS011;57398;52.032;4.376;2023-04-15T03:39:21;12.57;;;6.13;;
70052;SDS011;57398;52.032;4.376;2023-04-15T03:42:11;12.50;;;6.53;;
70052;SDS011;57398;52.032;4.376;2023-04-15T03:45:10;12.95;;;6.18;;
70052;SDS011;57398;52.032;4.376;2023-04-15T03:47:58;14.00;;;6.50;;
70052;SDS011;57398;52.032;4.376;2023-04-15T03:51:02;10.90;;;6.03;;
70052;SDS011;57398;52.032;4.376;2023-04-15T03:53:50;12.52;;;6.53;;
70052;SDS011;57398;52.032;4.376;2023-04-15T03:56:39;12.25;;;6.40;;
70052;SDS011;57398;52.032;4.376;2023-04-15T03:59:28;13.75;;;6.90;;
70052;SDS011;57398;52.032;4.376;2023-04-15T04:02:16;13.35;;;6.60;;
70052;SDS011;57398;52.032;4.376;2023-04-15T04:05:05;14.77;;;6.70;;
70052;SDS011;57398;52.032;4.376;2023-04-15T04:07:53;13.93;;;6.25;;
70052;SDS011;57398;52.032;4.376;2023-04-15T04:10:42;13.43;;;7.07;;
70052;SDS011;57398;52.032;4.376;2023-04-15T04:13:30;13.63;;;6.45;;
70052;SDS011;57398;52.032;4.376;2023-04-15T04:16:19;14.18;;;7.18;;
70052;SDS011;57398;52.032;4.376;2023-04-15T04:19:08;12.40;;;6.43;;
70052;SDS011;57398;52.032;4.376;2023-04-15T04:21:56;12.45;;;7.05;;
70052;SDS011;57398;52.032;4.376;2023-04-15T04:24:44;14.38;;;7.00;;
70052;SDS011;57398;52.032;4.376;2023-04-15T04:27:32;13.10;;;6.70;;
70052;SDS011;57398;52.032;4.376;2023-04-15T04:30:20;13.70;;;6.53;;
70052;SDS011;57398;52.032;4.376;2023-04-15T04:33:10;13.37;;;6.43;;
70052;SDS011;57398;52.032;4.376;2023-04-15T04:35:58;14.75;;;6.82;;
70052;SDS011;57398;52.032;4.376;2023-04-15T04:38:46;14.48;;;6.70;;
70052;SDS011;57398;52.032;4.376;2023-04-15T04:41:35;12.32;;;6.68;;
70052;SDS011;57398;52.032;4.376;2023-04-15T04:44:24;12.35;;;6.57;;
70052;SDS011;57398;52.032;4.376;2023-04-15T04:47:13;15.37;;;7.20;;
70052;SDS011;57398;52.032;4.376;2023-04-15T04:50:02;15.13;;;6.78;;
70052;SDS011;57398;52.032;4.376;2023-04-15T04:52:51;14.20;;;6.68;;
70052;SDS011;57398;52.032;4.376;2023-04-15T04:55:42;16.33;;;7.00;;
70052;SDS011;57398;52.032;4.376;2023-04-15T04:58:31;14.18;;;7.65;;
70052;SDS011;57398;52.032;4.376;2023-04-15T05:01:19;14.37;;;6.70;;
70052;SDS011;57398;52.032;4.376;2023-04-15T05:04:07;14.43;;;7.25;;
70052;SDS011;57398;52.032;4.376;2023-04-15T05:06:57;15.75;;;7.15;;
70052;SDS011;57398;52.032;4.376;2023-04-15T05:09:46;17.27;;;6.97;;
70052;SDS011;57398;52.032;4.376;2023-04-15T05:12:34;15.95;;;7.45;;
70052;SDS011;57398;52.032;4.376;2023-04-15T05:15:22;14.57;;;6.53;;
70052;SDS011;57398;52.032;4.376;2023-04-15T05:18:11;15.48;;;7.10;;
70052;SDS011;57398;52.032;4.376;2023-04-15T05:20:59;14.85;;;6.88;;
70052;SDS011;57398;52.032;4.376;2023-04-15T05:23:49;14.77;;;6.93;;
70052;SDS011;57398;52.032;4.376;2023-04-15T05:26:37;14.88;;;7.30;;
70052;SDS011;57398;52.032;4.376;2023-04-15T05:29:25;13.87;;;6.73;;
70052;SDS011;57398;52.032;4.376;2023-04-15T05:32:13;15.90;;;7.40;;
70052;SDS011;57398;52.032;4.376;2023-04-15T05:35:01;15.68;;;7.15;;
70052;SDS011;57398;52.032;4.376;2023-04-15T05:37:49;15.25;;;7.70;;
70052;SDS011;57398;52.032;4.376;2023-04-15T05:40:43;20.13;;;7.60;;
70052;SDS011;57398;52.032;4.376;2023-04-15T05:43:31;13.80;;;6.63;;
70052;SDS011;57398;52.032;4.376;2023-04-15T05:46:19;14.52;;;7.07;;
70052;SDS011;57398;52.032;4.376;2023-04-15T05:49:10;15.05;;;7.13;;
70052;SDS011;57398;52.032;4.376;2023-04-15T05:52:01;16.40;;;6.85;;
70052;SDS011;57398;52.032;4.376;2023-04-15T05:54:51;16.98;;;7.35;;
70052;SDS011;57398;52.032;4.376;2023-04-15T05:57:41;15.90;;;7.00;;
70052;SDS011;57398;52.032;4.376;2023-04-15T06:00:34;15.13;;;6.57;;
70052;SDS011;57398;52.032;4.376;2023-04-15T06:03:23;12.18;;;5.90;;
70052;SDS011;57398;52.032;4.376;2023-04-15T06:06:12;14.30;;;6.57;;
70052;SDS011;57398;52.032;4.376;2023-04-15T06:09:01;14.38;;;6.85;;
70052;SDS011;57398;52.032;4.376;2023-04-15T06:11:50;15.73;;;7.10;;
70052;SDS011;57398;52.032;4.376;2023-04-15T06:14:40;14.48;;;6.47;;
70052;SDS011;57398;52.032;4.376;2023-04-15T06:17:28;14.52;;;6.63;;
70052;SDS011;57398;52.032;4.376;2023-04-15T06:20:17;14.27;;;6.03;;
70052;SDS011;57398;52.032;4.376;2023-04-15T06:23:05;14.40;;;6.65;;
70052;SDS011;57398;52.032;4.376;2023-04-15T06:25:53;14.63;;;6.20;;
70052;SDS011;57398;52.032;4.376;2023-04-15T06:28:43;13.75;;;6.60;;
70052;SDS011;57398;52.032;4.376;2023-04-15T06:31:32;13.43;;;6.43;;
70052;SDS011;57398;52.032;4.376;2023-04-15T06:34:29;12.95;;;6.53;;
70052;SDS011;57398;52.032;4.376;2023-04-15T06:37:18;13.48;;;6.60;;
70052;SDS011;57398;52.032;4.376;2023-04-15T06:40:07;14.67;;;6.43;;
70052;SDS011;57398;52.032;4.376;2023-04-15T06:42:58;14.35;;;6.93;;
70052;SDS011;57398;52.032;4.376;2023-04-15T06:45:46;15.20;;;6.55;;
70052;SDS011;57398;52.032;4.376;2023-04-15T06:48:40;16.27;;;6.40;;
70052;SDS011;57398;52.032;4.376;2023-04-15T06:51:28;12.82;;;6.28;;
70052;SDS011;57398;52.032;4.376;2023-04-15T06:54:17;16.17;;;6.37;;
70052;SDS011;57398;52.032;4.376;2023-04-15T06:57:05;14.65;;;6.93;;
70052;SDS011;57398;52.032;4.376;2023-04-15T06:59:57;14.52;;;6.80;;
70052;SDS011;57398;52.032;4.376;2023-04-15T07:02:46;12.98;;;6.53;;
70052;SDS011;57398;52.032;4.376;2023-04-15T07:05:36;13.65;;;6.50;;
70052;SDS011;57398;52.032;4.376;2023-04-15T07:08:24;13.47;;;6.50;;
70052;SDS011;57398;52.032;4.376;2023-04-15T07:11:12;13.35;;;6.50;;
70052;SDS011;57398;52.032;4.376;2023-04-15T07:14:02;13.77;;;6.88;;
70052;SDS011;57398;52.032;4.376;2023-04-15T07:16:50;12.48;;;6.43;;
70052;SDS011;57398;52.032;4.376;2023-04-15T07:19:41;13.05;;;6.90;;
70052;SDS011;57398;52.032;4.376;2023-04-15T07:22:31;14.33;;;6.23;;
70052;SDS011;57398;52.032;4.376;2023-04-15T07:25:19;14.77;;;6.53;;
70052;SDS011;57398;52.032;4.376;2023-04-15T07:28:08;12.82;;;6.32;;
70052;SDS011;57398;52.032;4.376;2023-04-15T07:30:59;13.10;;;6.82;;
70052;SDS011;57398;52.032;4.376;2023-04-15T07:33:50;12.23;;;6.10;;
70052;SDS011;57398;52.032;4.376;2023-04-15T07:36:38;13.60;;;5.80;;
70052;SDS011;57398;52.032;4.376;2023-04-15T07:39:28;13.88;;;6.35;;
70052;SDS011;57398;52.032;4.376;2023-04-15T07:42:16;13.98;;;6.57;;
70052;SDS011;57398;52.032;4.376;2023-04-15T07:45:15;12.27;;;6.25;;
70052;SDS011;57398;52.032;4.376;2023-04-15T07:48:04;13.32;;;6.18;;
70052;SDS011;57398;52.032;4.376;2023-04-15T07:50:53;13.00;;;6.37;;
70052;SDS011;57398;52.032;4.376;2023-04-15T07:53:42;13.88;;;6.25;;
70052;SDS011;57398;52.032;4.376;2023-04-15T07:56:32;11.27;;;6.30;;
70052;SDS011;57398;52.032;4.376;2023-04-15T07:59:21;13.90;;;6.75;;
70052;SDS011;57398;52.032;4.376;2023-04-15T08:02:09;15.18;;;6.97;;
70052;SDS011;57398;52.032;4.376;2023-04-15T08:05:01;14.07;;;6.03;;
70052;SDS011;57398;52.032;4.376;2023-04-15T08:07:50;13.48;;;6.38;;
70052;SDS011;57398;52.032;4.376;2023-04-15T08:10:38;12.23;;;5.93;;
70052;SDS011;57398;52.032;4.376;2023-04-15T08:13:31;12.25;;;6.03;;
70052;SDS011;57398;52.032;4.376;2023-04-15T08:16:19;13.18;;;6.15;;
70052;SDS011;57398;52.032;4.376;2023-04-15T08:19:16;14.93;;;7.37;;
70052;SDS011;57398;52.032;4.376;2023-04-15T08:22:04;13.68;;;6.53;;
70052;SDS011;57398;52.032;4.376;2023-04-15T08:25:03;13.07;;;5.78;;
70052;SDS011;57398;52.032;4.376;2023-04-15T08:27:54;12.10;;;5.82;;
70052;SDS011;57398;52.032;4.376;2023-04-15T08:30:57;13.43;;;6.25;;
70052;SDS011;57398;52.032;4.376;2023-04-15T08:33:46;13.70;;;6.47;;
70052;SDS011;57398;52.032;4.376;2023-04-15T08:36:34;11.68;;;6.25;;
70052;SDS011;57398;52.032;4.376;2023-04-15T08:39:22;13.27;;;5.88;;
70052;SDS011;57398;52.032;4.376;2023-04-15T08:42:14;11.43;;;5.53;;
70052;SDS011;57398;52.032;4.376;2023-04-15T08:45:04;10.75;;;5.35;;
70052;SDS011;57398;52.032;4.376;2023-04-15T08:47:58;9.77;;;4.97;;
70052;SDS011;57398;52.032;4.376;2023-04-15T08:50:49;10.18;;;5.00;;
70052;SDS011;57398;52.032;4.376;2023-04-15T08:53:39;9.57;;;4.90;;
70052;SDS011;57398;52.032;4.376;2023-04-15T08:56:27;9.45;;;5.25;;
70052;SDS011;57398;52.032;4.376;2023-04-15T08:59:19;10.60;;;5.55;;
70052;SDS011;57398;52.032;4.376;2023-04-15T09:02:08;9.77;;;4.97;;
70052;SDS011;57398;52.032;4.376;2023-04-15T09:04:57;10.55;;;5.40;;
70052;SDS011;57398;52.032;4.376;2023-04-15T09:07:46;10.65;;;5.13;;
70052;SDS011;57398;52.032;4.376;2023-04-15T09:10:34;10.55;;;5.32;;
70052;SDS011;57398;52.032;4.376;2023-04-15T09:13:22;9.18;;;4.95;;
70052;SDS011;57398;52.032;4.376;2023-04-15T09:16:12;9.80;;;5.73;;
70052;SDS011;57398;52.032;4.376;2023-04-15T09:19:02;10.02;;;4.95;;
70052;SDS011;57398;52.032;4.376;2023-04-15T09:22:08;9.30;;;4.75;;
70052;SDS011;57398;52.032;4.376;2023-04-15T09:24:57;9.90;;;4.40;;
70052;SDS011;57398;52.032;4.376;2023-04-15T09:27:50;9.65;;;4.75;;
70052;SDS011;57398;52.032;4.376;2023-04-15T09:30:42;9.20;;;4.50;;
70052;SDS011;57398;52.032;4.376;2023-04-15T09:33:36;9.25;;;4.47;;
70052;SDS011;57398;52.032;4.376;2023-04-15T09:36:51;9.30;;;4.45;;
70052;SDS011;57398;52.032;4.376;2023-04-15T09:39:52;9.75;;;4.30;;
70052;SDS011;57398;52.032;4.376;2023-04-15T09:42:53;10.02;;;4.20;;
70052;SDS011;57398;52.032;4.376;2023-04-15T09:45:46;7.70;;;3.93;;
70052;SDS011;57398;52.032;4.376;2023-04-15T09:48:35;8.15;;;3.85;;
70052;SDS011;57398;52.032;4.376;2023-04-15T09:51:31;9.68;;;4.57;;
70052;SDS011;57398;52.032;4.376;2023-04-15T09:54:23;8.43;;;4.18;;
70052;SDS011;57398;52.032;4.376;2023-04-15T09:57:12;8.75;;;4.10;;
70052;SDS011;57398;52.032;4.376;2023-04-15T10:00:02;8.40;;;3.90;;
70052;SDS011;57398;52.032;4.376;2023-04-15T10:02:50;8.02;;;3.75;;
70052;SDS011;57398;52.032;4.376;2023-04-15T10:05:41;8.38;;;4.13;;
70052;SDS011;57398;52.032;4.376;2023-04-15T10:08:30;7.95;;;3.70;;
70052;SDS011;57398;52.032;4.376;2023-04-15T10:11:20;8.48;;;3.88;;
70052;SDS011;57398;52.032;4.376;2023-04-15T10:14:13;8.10;;;3.00;;
70052;SDS011;57398;52.032;4.376;2023-04-15T10:17:03;8.45;;;3.17;;
70052;SDS011;57398;52.032;4.376;2023-04-15T10:19:52;5.97;;;2.83;;
70052;SDS011;57398;52.032;4.376;2023-04-15T10:22:42;5.82;;;2.50;;
70052;SDS011;57398;52.032;4.376;2023-04-15T10:25:33;7.03;;;2.60;;
70052;SDS011;57398;52.032;4.376;2023-04-15T10:28:21;6.53;;;2.90;;
70052;SDS011;57398;52.032;4.376;2023-04-15T10:31:14;5.82;;;2.50;;
70052;SDS011;57398;52.032;4.376;2023-04-15T10:34:06;5.68;;;2.22;;
70052;SDS011;57398;52.032;4.376;2023-04-15T10:36:55;6.30;;;2.20;;
70052;SDS011;57398;52.032;4.376;2023-04-15T10:39:44;6.05;;;2.10;;
70052;SDS011;57398;52.032;4.376;2023-04-15T10:42:32;6.00;;;2.20;;
70052;SDS011;57398;52.032;4.376;2023-04-15T10:45:24;5.88;;;2.35;;
70052;SDS011;57398;52.032;4.376;2023-04-15T10:48:17;6.25;;;2.30;;
70052;SDS011;57398;52.032;4.376;2023-04-15T10:51:06;7.25;;;2.40;;
70052;SDS011;57398;52.032;4.376;2023-04-15T10:53:56;7.57;;;2.72;;
70052;SDS011;57398;52.032;4.376;2023-04-15T10:56:47;6.30;;;2.53;;
70052;SDS011;57398;52.032;4.376;2023-04-15T11:02:51;6.80;;;3.00;;
70052;SDS011;57398;52.032;4.376;2023-04-15T11:05:51;5.95;;;2.50;;
70052;SDS011;57398;52.032;4.376;2023-04-15T11:08:52;7.43;;;2.90;;
70052;SDS011;57398;52.032;4.376;2023-04-15T11:14:52;6.07;;;2.80;;
70052;SDS011;57398;52.032;4.376;2023-04-15T11:17:40;5.38;;;2.55;;
70052;SDS011;57398;52.032;4.376;2023-04-15T11:20:31;5.00;;;2.20;;
70052;SDS011;57398;52.032;4.376;2023-04-15T11:23:28;6.00;;;2.55;;
70052;SDS011;57398;52.032;4.376;2023-04-15T11:26:18;6.40;;;2.40;;
70052;SDS011;57398;52.032;4.376;2023-04-15T11:29:16;5.20;;;2.17;;
70052;SDS011;57398;52.032;4.376;2023-04-15T11:32:04;5.13;;;2.33;;
70052;SDS011;57398;52.032;4.376;2023-04-15T11:34:53;6.05;;;2.20;;
70052;SDS011;57398;52.032;4.376;2023-04-15T11:37:42;5.30;;;2.63;;
70052;SDS011;57398;52.032;4.376;2023-04-15T11:40:31;5.57;;;2.23;;
70052;SDS011;57398;52.032;4.376;2023-04-15T11:43:21;7.20;;;2.80;;
70052;SDS011;57398;52.032;4.376;2023-04-15T11:46:11;6.65;;;2.72;;
70052;SDS011;57398;52.032;4.376;2023-04-15T11:48:59;6.38;;;2.83;;
70052;SDS011;57398;52.032;4.376;2023-04-15T11:51:52;6.80;;;2.70;;
70052;SDS011;57398;52.032;4.376;2023-04-15T11:54:41;9.50;;;3.27;;
70052;SDS011;57398;52.032;4.376;2023-04-15T11:57:31;8.05;;;3.20;;
70052;SDS011;57398;52.032;4.376;2023-04-15T12:00:21;9.45;;;3.20;;
70052;SDS011;57398;52.032;4.376;2023-04-15T12:06:19;7.38;;;3.38;;
70052;SDS011;57398;52.032;4.376;2023-04-15T12:09:08;8.17;;;3.53;;
70052;SDS011;57398;52.032;4.376;2023-04-15T12:11:58;10.38;;;3.47;;
70052;SDS011;57398;52.032;4.376;2023-04-15T12:14:50;7.88;;;3.15;;
70052;SDS011;57398;52.032;4.376;2023-04-15T12:17:41;7.75;;;2.90;;
70052;SDS011;57398;52.032;4.376;2023-04-15T12:20:42;6.38;;;2.80;;
70052;SDS011;57398;52.032;4.376;2023-04-15T12:23:30;6.03;;;2.87;;
70052;SDS011;57398;52.032;4.376;2023-04-15T12:26:26;6.55;;;2.63;;
70052;SDS011;57398;52.032;4.376;2023-04-15T12:29:16;6.82;;;2.70;;
70052;SDS011;57398;52.032;4.376;2023-04-15T12:32:08;6.75;;;2.95;;
70052;SDS011;57398;52.032;4.376;2023-04-15T12:34:57;8.20;;;2.95;;
70052;SDS011;57398;52.032;4.376;2023-04-15T12:37:45;6.50;;;2.97;;
70052;SDS011;57398;52.032;4.376;2023-04-15T12:40:34;8.65;;;3.10;;
70052;SDS011;57398;52.032;4.376;2023-04-15T12:43:22;7.03;;;2.63;;
70052;SDS011;57398;52.032;4.376;2023-04-15T12:46:10;9.23;;;3.38;;
70052;SDS011;57398;52.032;4.376;2023-04-15T12:49:00;7.80;;;3.20;;
70052;SDS011;57398;52.032;4.376;2023-04-15T12:51:49;6.10;;;2.27;;
70052;SDS011;57398;52.032;4.376;2023-04-15T12:54:38;7.00;;;2.65;;
70052;SDS011;57398;52.032;4.376;2023-04-15T12:57:26;8.98;;;2.40;;
70052;SDS011;57398;52.032;4.376;2023-04-15T13:00:15;7.22;;;2.08;;
70052;SDS011;57398;52.032;4.376;2023-04-15T13:03:03;5.55;;;2.20;;
70052;SDS011;57398;52.032;4.376;2023-04-15T13:05:54;7.77;;;2.50;;
70052;SDS011;57398;52.032;4.376;2023-04-15T13:08:43;7.03;;;2.25;;
70052;SDS011;57398;52.032;4.376;2023-04-15T13:11:44;4.47;;;1.80;;
70052;SDS011;57398;52.032;4.376;2023-04-15T13:14:32;5.72;;;2.25;;
70052;SDS011;57398;52.032;4.376;2023-04-15T13:17:21;5.05;;;2.13;;
70052;SDS011;57398;52.032;4.376;2023-04-15T13:20:09;6.30;;;2.23;;
70052;SDS011;57398;52.032;4.376;2023-04-15T13:22:59;6.95;;;2.50;;
70052;SDS011;57398;52.032;4.376;2023-04-15T13:25:47;8.25;;;2.47;;
70052;SDS011;57398;52.032;4.376;2023-04-15T13:28:35;7.85;;;2.60;;
70052;SDS011;57398;52.032;4.376;2023-04-15T13:31:26;4.82;;;1.90;;
70052;SDS011;57398;52.032;4.376;2023-04-15T13:34:15;7.47;;;2.30;;
70052;SDS011;57398;52.032;4.376;2023-04-15T13:37:05;6.72;;;2.70;;
70052;SDS011;57398;52.032;4.376;2023-04-15T13:39:55;7.13;;;2.58;;
70052;SDS011;57398;52.032;4.376;2023-04-15T13:42:54;7.18;;;2.40;;
70052;SDS011;57398;52.032;4.376;2023-04-15T13:45:45;6.60;;;2.25;;
70052;SDS011;57398;52.032;4.376;2023-04-15T13:48:33;6.33;;;2.17;;
70052;SDS011;57398;52.032;4.376;2023-04-15T13:51:21;5.75;;;2.30;;
70052;SDS011;57398;52.032;4.376;2023-04-15T13:54:09;6.68;;;2.38;;
70052;SDS011;57398;52.032;4.376;2023-04-15T13:56:59;6.47;;;2.10;;
70052;SDS011;57398;52.032;4.376;2023-04-15T13:59:47;9.20;;;2.60;;
70052;SDS011;57398;52.032;4.376;2023-04-15T14:02:35;6.77;;;2.80;;
70052;SDS011;57398;52.032;4.376;2023-04-15T14:05:24;9.18;;;2.47;;
70052;SDS011;57398;52.032;4.376;2023-04-15T14:08:12;5.85;;;2.40;;
70052;SDS011;57398;52.032;4.376;2023-04-15T14:11:01;6.90;;;2.22;;
70052;SDS011;57398;52.032;4.376;2023-04-15T14:13:50;8.13;;;2.38;;
70052;SDS011;57398;52.032;4.376;2023-04-15T14:16:38;6.97;;;2.30;;
70052;SDS011;57398;52.032;4.376;2023-04-15T14:19:28;6.07;;;1.77;;
70052;SDS011;57398;52.032;4.376;2023-04-15T14:22:17;5.57;;;2.15;;
70052;SDS011;57398;52.032;4.376;2023-04-15T14:25:05;5.60;;;1.90;;
70052;SDS011;57398;52.032;4.376;2023-04-15T14:27:54;6.80;;;2.00;;
70052;SDS011;57398;52.032;4.376;2023-04-15T14:30:43;5.33;;;1.83;;
70052;SDS011;57398;52.032;4.376;2023-04-15T14:33:31;9.05;;;2.83;;
70052;SDS011;57398;52.032;4.376;2023-04-15T14:36:19;11.18;;;3.13;;
70052;SDS011;57398;52.032;4.376;2023-04-15T14:39:07;8.13;;;2.75;;
70052;SDS011;57398;52.032;4.376;2023-04-15T14:41:56;5.63;;;2.40;;
70052;SDS011;57398;52.032;4.376;2023-04-15T14:44:44;7.30;;;3.20;;
70052;SDS011;57398;52.032;4.376;2023-04-15T14:47:34;7.00;;;2.60;;
70052;SDS011;57398;52.032;4.376;2023-04-15T14:50:22;7.65;;;3.40;;
70052;SDS011;57398;52.032;4.376;2023-04-15T14:53:10;6.95;;;3.15;;
70052;SDS011;57398;52.032;4.376;2023-04-15T14:55:58;8.93;;;3.47;;
70052;SDS011;57398;52.032;4.376;2023-04-15T14:58:47;6.17;;;2.50;;
70052;SDS011;57398;52.032;4.376;2023-04-15T15:01:35;8.30;;;2.80;;
70052;SDS011;57398;52.032;4.376;2023-04-15T15:04:25;5.50;;;2.70;;
70052;SDS011;57398;52.032;4.376;2023-04-15T15:07:14;7.35;;;2.72;;
70052;SDS011;57398;52.032;4.376;2023-04-15T15:10:02;6.13;;;2.90;;
70052;SDS011;57398;52.032;4.376;2023-04-15T15:12:51;7.30;;;2.40;;
70052;SDS011;57398;52.032;4.376;2023-04-15T15:15:39;6.90;;;2.63;;
70052;SDS011;57398;52.032;4.376;2023-04-15T15:18:28;6.28;;;2.75;;
70052;SDS011;57398;52.032;4.376;2023-04-15T15:21:18;7.45;;;2.80;;
70052;SDS011;57398;52.032;4.376;2023-04-15T15:24:06;8.30;;;2.92;;
70052;SDS011;57398;52.032;4.376;2023-04-15T15:26:54;6.23;;;2.67;;
70052;SDS011;57398;52.032;4.376;2023-04-15T15:29:43;7.97;;;2.63;;
70052;SDS011;57398;52.032;4.376;2023-04-15T15:32:35;6.07;;;2.70;;
70052;SDS011;57398;52.032;4.376;2023-04-15T15:35:30;5.88;;;2.70;;
70052;SDS011;57398;52.032;4.376;2023-04-15T15:38:21;5.60;;;2.47;;
70052;SDS011;57398;52.032;4.376;2023-04-15T15:41:10;7.43;;;2.60;;
70052;SDS011;57398;52.032;4.376;2023-04-15T15:43:59;7.50;;;2.42;;
70052;SDS011;57398;52.032;4.376;2023-04-15T15:46:48;6.65;;;2.40;;
70052;SDS011;57398;52.032;4.376;2023-04-15T15:49:37;7.05;;;2.75;;
70052;SDS011;57398;52.032;4.376;2023-04-15T15:52:26;8.80;;;2.78;;
70052;SDS011;57398;52.032;4.376;2023-04-15T15:55:16;5.80;;;2.60;;
70052;SDS011;57398;52.032;4.376;2023-04-15T15:58:06;6.03;;;2.88;;
70052;SDS011;57398;52.032;4.376;2023-04-15T16:00:54;7.38;;;2.60;;
70052;SDS011;57398;52.032;4.376;2023-04-15T16:03:42;9.95;;;2.90;;
70052;SDS011;57398;52.032;4.376;2023-04-15T16:06:31;8.23;;;2.60;;
70052;SDS011;57398;52.032;4.376;2023-04-15T16:09:20;6.70;;;2.70;;
70052;SDS011;57398;52.032;4.376;2023-04-15T16:12:10;9.93;;;3.10;;
70052;SDS011;57398;52.032;4.376;2023-04-15T16:14:58;6.55;;;2.53;;
70052;SDS011;57398;52.032;4.376;2023-04-15T16:17:46;6.65;;;2.72;;
70052;SDS011;57398;52.032;4.376;2023-04-15T16:20:35;5.63;;;2.40;;
70052;SDS011;57398;52.032;4.376;2023-04-15T16:23:24;7.27;;;2.77;;
70052;SDS011;57398;52.032;4.376;2023-04-15T16:26:12;6.80;;;2.85;;
70052;SDS011;57398;52.032;4.376;2023-04-15T16:29:02;10.52;;;3.47;;
70052;SDS011;57398;52.032;4.376;2023-04-15T16:31:51;7.93;;;2.60;;
70052;SDS011;57398;52.032;4.376;2023-04-15T16:34:39;6.07;;;2.75;;
70052;SDS011;57398;52.032;4.376;2023-04-15T16:37:31;5.93;;;2.53;;
70052;SDS011;57398;52.032;4.376;2023-04-15T16:40:24;5.40;;;2.65;;
70052;SDS011;57398;52.032;4.376;2023-04-15T16:43:34;6.95;;;2.17;;
70052;SDS011;57398;52.032;4.376;2023-04-15T16:46:24;5.80;;;2.28;;
70052;SDS011;57398;52.032;4.376;2023-04-15T16:49:12;7.22;;;2.78;;
70052;SDS011;57398;52.032;4.376;2023-04-15T16:52:00;5.70;;;2.13;;
70052;SDS011;57398;52.032;4.376;2023-04-15T16:54:51;6.65;;;2.38;;
70052;SDS011;57398;52.032;4.376;2023-04-15T16:57:39;6.25;;;2.50;;
70052;SDS011;57398;52.032;4.376;2023-04-15T17:00:47;6.10;;;2.00;;
70052;SDS011;57398;52.032;4.376;2023-04-15T17:03:36;6.60;;;2.10;;
70052;SDS011;57398;52.032;4.376;2023-04-15T17:06:25;4.63;;;1.83;;